Nearby METAR Reports

 

EGDR - Culdrose (navy), United Kingdom
Distance from station: S 10mi, 17km
Updated: 25/10/2021 23:50
Clear
Clear
 Wind from WSW
Wind: WSW 7 mph , 11 km/h
Temperature: 12°C
Dew Point: 10°C
Humidity: 88%
Barometer: 1018 hPa
Clouds: Clear
Visibility: 6 miles , 10 km
2021/10/25 22:50 EGDR 252250Z AUTO 25006KT 9999 // NCD 12/10 Q1018
EGHQ - Newquay, United Kingdom
Distance from station: NE 17mi, 27km
Updated: 26/10/2021 00:20
Few Clouds
Few Clouds
 Wind from WSW
Wind: WSW 8 mph , 13 km/h
Temperature: 12°C
Dew Point: 10°C
Humidity: 88%
Barometer: 1018 hPa
Clouds: Few Clouds
Visibility: 6 miles , 10 km
Cloud details: Few Clouds 457 m
2021/10/25 23:20 EGHQ 252320Z AUTO 25007KT 9999 FEW015/// 12/10 Q1018
 
EGHC - Lands End, United Kingdom
Distance from station: WSW 22mi, 35km
Updated: 25/10/2021 16:50
NOT Current
Nearby showers, Partly cloudy
Nearby showers, Partly cloudy
 Wind from W
Wind: W 8 mph , 13 km/h
Temperature: 12°C
Dew Point: 11°C
Humidity: 94%
Barometer: 1016 hPa
Summary: Nearby Showers
Clouds: Partly cloudy
Visibility: 6 miles , 10 km
Cloud details: Few Clouds 305 m
Partly cloudy 671 m
2021/10/25 15:50 EGHC 251550Z 26007KT 9999 VCSH FEW010 SCT022 12/11 Q1016